createdAt,value
2023-07-25T00:00:45.786Z,97250.94
2023-07-25T00:02:50.331Z,97251.09
2023-07-25T00:04:53.591Z,97245.00
2023-07-25T00:06:56.745Z,97250.44
2023-07-25T00:08:59.798Z,97251.59
2023-07-25T00:11:02.940Z,97238.78
2023-07-25T00:13:05.974Z,97238.78
2023-07-25T00:15:09.092Z,97228.56
2023-07-25T00:17:12.077Z,97234.19
2023-07-25T00:19:16.523Z,97235.31
2023-07-25T00:21:19.004Z,97228.41
2023-07-25T00:23:22.083Z,97236.47
2023-07-25T00:25:25.383Z,97231.19
2023-07-25T00:27:28.523Z,97234.50
2023-07-25T00:29:31.679Z,97229.41
2023-07-25T00:31:35.113Z,97236.47
2023-07-25T00:33:38.488Z,97234.84
2023-07-25T00:35:42.907Z,97234.00
2023-07-25T00:37:46.016Z,97230.56
2023-07-25T00:39:48.323Z,97223.44
2023-07-25T00:41:51.474Z,97217.53
2023-07-25T00:43:54.534Z,97212.91
2023-07-25T00:45:57.702Z,97203.38
2023-07-25T00:48:00.907Z,97208.66
2023-07-25T00:50:03.218Z,97201.56
2023-07-25T00:52:08.559Z,97204.34
2023-07-25T00:54:10.642Z,97200.06
2023-07-25T00:56:15.009Z,97202.69
2023-07-25T00:58:18.604Z,97197.41
2023-07-25T01:00:21.782Z,97203.88
2023-07-25T01:02:25.521Z,97199.75
2023-07-25T01:04:28.742Z,97198.09
2023-07-25T01:06:32.064Z,97197.28
2023-07-25T01:08:48.875Z,97192.00
2023-07-25T01:10:51.940Z,97200.09
2023-07-25T01:12:55.078Z,97190.19
2023-07-25T01:14:58.149Z,97192.81
2023-07-25T01:17:00.564Z,97195.47
2023-07-25T01:19:03.720Z,97187.53
2023-07-25T01:21:06.934Z,97192.00
2023-07-25T01:23:11.316Z,97189.53
2023-07-25T01:25:16.353Z,97187.72
2023-07-25T01:27:19.529Z,97189.53
2023-07-25T01:29:22.683Z,97187.06
2023-07-25T01:31:25.711Z,97187.06
2023-07-25T01:33:28.777Z,97181.16
2023-07-25T01:35:31.858Z,97189.06
2023-07-25T01:37:34.883Z,97184.59
2023-07-25T01:39:36.967Z,97173.25
2023-07-25T01:41:42.222Z,97182.13
2023-07-25T01:43:45.295Z,97175.03
2023-07-25T01:45:48.386Z,97187.41
2023-07-25T01:47:51.512Z,97174.22
2023-07-25T01:49:54.928Z,97162.19
2023-07-25T01:51:58.003Z,97154.28
2023-07-25T01:54:01.143Z,97144.75
2023-07-25T01:56:03.403Z,97138.13
2023-07-25T01:58:07.886Z,97151.81
2023-07-25T02:00:11.905Z,97142.28
2023-07-25T02:02:17.865Z,97140.63
2023-07-25T02:04:21.128Z,97138.81
2023-07-25T02:06:24.173Z,97125.78
2023-07-25T02:08:27.396Z,97117.56
2023-07-25T02:10:31.073Z,97115.44
2023-07-25T02:12:34.161Z,97111.16
2023-07-25T02:14:38.728Z,97125.97
2023-07-25T02:16:43.014Z,97128.44
2023-07-25T02:18:46.503Z,97119.56
2023-07-25T02:20:49.637Z,97115.28
2023-07-25T02:22:52.738Z,97105.38
2023-07-25T02:24:55.900Z,97100.13
2023-07-25T02:26:59.043Z,97091.56
2023-07-25T02:29:02.188Z,97099.63
2023-07-25T02:31:06.726Z,97108.34
2023-07-25T02:33:09.894Z,97104.09
2023-07-25T02:35:13.083Z,97099.63
2023-07-25T02:37:16.378Z,97097.00
2023-07-25T02:39:22.245Z,97096.84
2023-07-25T02:41:25.544Z,97081.03
2023-07-25T02:43:28.757Z,97071.47
2023-07-25T02:45:31.845Z,97073.47
2023-07-25T02:47:35.324Z,97084.97
2023-07-25T02:49:39.757Z,97074.44
2023-07-25T02:51:42.938Z,97071.00
2023-07-25T02:53:46.217Z,97070.19
2023-07-25T02:55:49.821Z,97078.09
2023-07-25T02:57:53.069Z,97076.44
2023-07-25T02:59:56.177Z,97083.34
2023-07-25T03:01:59.253Z,97082.34
2023-07-25T03:04:03.745Z,97084.00
2023-07-25T03:06:06.813Z,97072.66
2023-07-25T03:08:10.272Z,97070.66
2023-07-25T03:10:13.305Z,97064.41
2023-07-25T03:12:16.477Z,97061.59
2023-07-25T03:14:19.589Z,97056.97
2023-07-25T03:16:22.691Z,97056.00
2023-07-25T03:18:25.870Z,97046.28
2023-07-25T03:20:30.445Z,97034.75
2023-07-25T03:22:33.581Z,97042.47
2023-07-25T03:24:36.711Z,97045.13
2023-07-25T03:26:39.966Z,97053.84
2023-07-25T03:28:43.108Z,97066.19
2023-07-25T03:30:46.418Z,97082.66
2023-07-25T03:32:49.670Z,97080.81
2023-07-25T03:34:52.965Z,97079.03
2023-07-25T03:36:57.430Z,97069.13
2023-07-25T03:39:00.625Z,97067.66
2023-07-25T03:41:03.739Z,97081.66
2023-07-25T03:43:06.957Z,97091.19
2023-07-25T03:45:09.948Z,97102.41
2023-07-25T03:47:13.141Z,97111.31
2023-07-25T03:49:17.023Z,97114.56
2023-07-25T03:51:20.163Z,97109.94
2023-07-25T03:53:24.688Z,97111.44
2023-07-25T03:55:28.312Z,97109.31
2023-07-25T03:57:31.408Z,97107.34
2023-07-25T03:59:34.450Z,97096.44
2023-07-25T04:01:37.550Z,97088.88
2023-07-25T04:03:39.822Z,97089.03
2023-07-25T04:05:43.010Z,97102.03
2023-07-25T04:07:46.352Z,97097.97
2023-07-25T04:09:50.995Z,97106.03
2023-07-25T04:11:53.105Z,97107.69
2023-07-25T04:13:56.180Z,97100.44
2023-07-25T04:15:59.476Z,97098.78
2023-07-25T04:18:02.713Z,97096.59
2023-07-25T04:20:07.051Z,97094.50
2023-07-25T04:22:10.106Z,97105.06
2023-07-25T04:24:13.244Z,97108.03
2023-07-25T04:26:17.716Z,97103.56
2023-07-25T04:28:20.727Z,97109.66
2023-07-25T04:30:23.794Z,97110.31
2023-07-25T04:32:26.990Z,97122.16
2023-07-25T04:34:30.195Z,97119.50
2023-07-25T04:36:33.391Z,97124.47
2023-07-25T04:38:36.506Z,97129.41
2023-07-25T04:40:38.650Z,97120.19
2023-07-25T04:42:43.012Z,97131.03
2023-07-25T04:44:46.266Z,97135.00
2023-07-25T04:46:49.384Z,97133.66
2023-07-25T04:48:52.500Z,97128.72
2023-07-25T04:50:55.646Z,97131.97
2023-07-25T04:52:57.961Z,97128.72
2023-07-25T04:55:00.961Z,97133.13
2023-07-25T04:57:04.198Z,97124.88
2023-07-25T04:59:08.784Z,97117.94
2023-07-25T05:01:13.599Z,97125.00
2023-07-25T05:03:16.953Z,97123.31
2023-07-25T05:05:20.102Z,97117.34
2023-07-25T05:07:23.203Z,97111.56
2023-07-25T05:09:26.249Z,97108.56
2023-07-25T05:11:29.477Z,97121.25
2023-07-25T05:13:32.730Z,97121.06
2023-07-25T05:15:39.015Z,97119.28
2023-07-25T05:17:42.184Z,97123.38
2023-07-25T05:19:45.249Z,97114.28
2023-07-25T05:21:48.589Z,97119.22
2023-07-25T05:23:51.644Z,97119.22
2023-07-25T05:25:54.752Z,97121.69
2023-07-25T05:27:57.824Z,97115.41
2023-07-25T05:29:59.915Z,97107.13
2023-07-25T05:32:04.564Z,97112.22
2023-07-25T05:34:07.577Z,97121.81
2023-07-25T05:36:09.753Z,97116.53
2023-07-25T05:38:12.801Z,97126.09
2023-07-25T05:40:15.923Z,97143.72
2023-07-25T05:42:18.086Z,97142.28
2023-07-25T05:44:21.141Z,97146.06
2023-07-25T05:46:24.188Z,97145.63
2023-07-25T05:48:28.691Z,97129.47
2023-07-25T05:50:31.813Z,97127.38
2023-07-25T05:52:34.932Z,97136.59
2023-07-25T05:54:38.056Z,97128.69
2023-07-25T05:56:41.201Z,97137.75
2023-07-25T05:58:43.360Z,97145.03
2023-07-25T06:00:47.124Z,97152.94
2023-07-25T06:02:50.263Z,97153.94
2023-07-25T06:04:54.774Z,97150.19
2023-07-25T06:06:59.088Z,97156.44
2023-07-25T06:09:02.728Z,97149.50
2023-07-25T06:11:05.903Z,97155.47
2023-07-25T06:13:09.322Z,97158.56
2023-07-25T06:15:12.546Z,97151.28
2023-07-25T06:17:15.828Z,97163.84
2023-07-25T06:19:18.989Z,97137.28
2023-07-25T06:21:23.504Z,97130.19
2023-07-25T06:23:26.702Z,97133.84
2023-07-25T06:25:29.985Z,97141.59
2023-07-25T06:27:33.157Z,97145.38
2023-07-25T06:29:36.282Z,97143.22
2023-07-25T06:31:41.527Z,97140.22
2023-07-25T06:33:45.019Z,97144.00
2023-07-25T06:35:48.282Z,97146.31
2023-07-25T06:37:52.736Z,97135.09
2023-07-25T06:39:56.683Z,97132.47
2023-07-25T06:41:59.824Z,97142.69
2023-07-25T06:44:05.922Z,97148.59
2023-07-25T06:46:09.212Z,97142.81
2023-07-25T06:48:12.527Z,97143.63
2023-07-25T06:50:15.843Z,97141.25
2023-07-25T06:52:19.049Z,97138.44
2023-07-25T06:54:23.587Z,97141.09
2023-07-25T06:56:26.703Z,97146.50
2023-07-25T06:58:32.698Z,97136.75
2023-07-25T07:00:40.380Z,97127.31
2023-07-25T07:02:44.096Z,97129.59
2023-07-25T07:04:47.467Z,97130.88
2023-07-25T07:06:50.865Z,97115.88
2023-07-25T07:08:54.272Z,97112.88
2023-07-25T07:10:58.829Z,97107.25
2023-07-25T07:13:01.228Z,97106.06
2023-07-25T07:15:04.907Z,97102.09
2023-07-25T07:17:08.389Z,97101.72
2023-07-25T07:19:12.470Z,97107.28
2023-07-25T07:21:15.721Z,97111.50
2023-07-25T07:23:19.103Z,97107.16
2023-07-25T07:25:22.240Z,97111.38
2023-07-25T07:27:28.228Z,97113.94
2023-07-25T07:29:31.842Z,97116.06
2023-07-25T07:31:35.215Z,97115.34
2023-07-25T07:33:38.433Z,97104.94
2023-07-25T07:35:41.647Z,97113.50
2023-07-25T07:37:45.143Z,97113.50
2023-07-25T07:39:48.356Z,97106.06
2023-07-25T07:41:51.594Z,97097.78
2023-07-25T07:43:56.142Z,97102.16
2023-07-25T07:45:59.462Z,97100.53
2023-07-25T07:48:02.760Z,97093.16
2023-07-25T07:50:05.641Z,97099.34
2023-07-25T07:52:17.615Z,97092.25
2023-07-25T07:54:29.276Z,97108.38
2023-07-25T07:56:32.866Z,97105.53
2023-07-25T07:58:36.970Z,97102.97
2023-07-25T08:00:42.007Z,97103.63
2023-07-25T08:02:46.700Z,97102.06
2023-07-25T08:04:49.945Z,97107.91
2023-07-25T08:06:53.149Z,97113.03
2023-07-25T08:08:55.359Z,97112.78
2023-07-25T08:10:58.721Z,97117.16
2023-07-25T08:13:01.839Z,97111.84
2023-07-25T08:15:05.940Z,97113.31
2023-07-25T08:17:10.836Z,97120.16
2023-07-25T08:19:14.009Z,97120.84
2023-07-25T08:21:17.148Z,97115.94
2023-07-25T08:23:21.623Z,97132.16
2023-07-25T08:25:24.936Z,97125.88
2023-07-25T08:27:28.089Z,97130.03
2023-07-25T08:29:31.340Z,97123.91
2023-07-25T08:31:34.787Z,97116.19
2023-07-25T08:33:38.573Z,97126.91
2023-07-25T08:35:43.697Z,97120.00
2023-07-25T08:37:47.271Z,97123.84
2023-07-25T08:39:50.631Z,97129.84
2023-07-25T08:41:55.269Z,97121.72
2023-07-25T08:44:01.911Z,97121.78
2023-07-25T08:46:08.711Z,97106.59
2023-07-25T08:48:13.854Z,97102.34
2023-07-25T08:50:18.961Z,97106.38
2023-07-25T08:52:22.569Z,97102.25
2023-07-25T08:54:31.139Z,97094.25
2023-07-25T08:56:36.244Z,97092.16
2023-07-25T08:58:42.996Z,97086.44
2023-07-25T09:00:47.130Z,97086.84
2023-07-25T09:02:53.621Z,97087.94
2023-07-25T09:04:57.904Z,97090.81
2023-07-25T09:07:03.131Z,97087.97
2023-07-25T09:09:06.065Z,97087.97
2023-07-25T09:11:11.286Z,97095.16
2023-07-25T09:13:14.788Z,97099.06
2023-07-25T09:15:18.108Z,97083.69
2023-07-25T09:17:21.746Z,97084.31
2023-07-25T09:19:25.216Z,97080.75
2023-07-25T09:21:28.411Z,97072.50
2023-07-25T09:23:33.116Z,97084.53
2023-07-25T09:25:36.514Z,97079.09
2023-07-25T09:27:39.726Z,97070.69
2023-07-25T09:29:43.251Z,97073.69
2023-07-25T09:31:47.903Z,97068.84
2023-07-25T09:33:54.752Z,97064.53
2023-07-25T09:36:00.679Z,97047.00
2023-07-25T09:38:03.963Z,97047.47
2023-07-25T09:40:13.185Z,97044.47
2023-07-25T09:42:16.505Z,97029.13
2023-07-25T09:44:19.653Z,97028.38
2023-07-25T09:46:23.261Z,97032.75
2023-07-25T09:48:27.685Z,97028.50
2023-07-25T09:50:35.320Z,97015.19
2023-07-25T09:52:42.953Z,97016.72
2023-07-25T09:54:46.303Z,97019.19
2023-07-25T09:56:53.469Z,97015.53
2023-07-25T10:01:05.150Z,97024.56
2023-07-25T10:03:11.327Z,97020.88
2023-07-25T10:05:14.710Z,97018.81
2023-07-25T10:07:19.046Z,97017.59
2023-07-25T10:09:23.120Z,97014.09
2023-07-25T10:11:26.801Z,97017.56
2023-07-25T10:13:34.024Z,97023.50
2023-07-25T10:15:37.869Z,97020.00
2023-07-25T10:17:40.183Z,97015.25
2023-07-25T10:19:51.776Z,97021.13
2023-07-25T10:21:56.174Z,97018.47
2023-07-25T10:24:02.250Z,97010.06
2023-07-25T10:26:13.452Z,97013.47
2023-07-25T10:28:25.640Z,97016.63
2023-07-25T10:30:31.049Z,97011.75
2023-07-25T10:32:49.033Z,97005.44
2023-07-25T10:34:55.810Z,97008.03
2023-07-25T10:37:31.332Z,97014.75
2023-07-25T10:39:35.129Z,97008.16
2023-07-25T10:41:38.162Z,97006.19
2023-07-25T10:44:03.350Z,96998.34
2023-07-25T10:46:08.979Z,97001.50
2023-07-25T10:48:44.362Z,96998.69
2023-07-25T10:50:52.290Z,96995.41
2023-07-25T10:52:55.497Z,96997.25
2023-07-25T10:55:04.503Z,96994.59
2023-07-25T10:57:18.536Z,96994.56
2023-07-25T10:59:21.804Z,96990.88
2023-07-25T11:01:44.291Z,96992.13
2023-07-25T11:03:47.563Z,96984.56
2023-07-25T11:05:50.589Z,96981.69
2023-07-25T11:07:56.172Z,96981.09
2023-07-25T11:09:59.379Z,96979.44
2023-07-25T11:12:02.511Z,96969.28
2023-07-25T11:14:08.512Z,96964.59
2023-07-25T11:16:12.751Z,96965.22
2023-07-25T11:18:16.189Z,96955.03
2023-07-25T11:20:20.567Z,96960.56
2023-07-25T11:22:23.702Z,96963.22
2023-07-25T11:24:26.939Z,96972.81
2023-07-25T11:26:29.172Z,96986.47
2023-07-25T11:28:32.306Z,96977.47
2023-07-25T11:30:35.868Z,96980.97
2023-07-25T11:32:38.149Z,96983.19
2023-07-25T11:34:50.295Z,96986.03
2023-07-25T11:36:54.050Z,96993.19
2023-07-25T11:38:58.516Z,96984.59
2023-07-25T11:41:01.666Z,96988.47
2023-07-25T11:43:12.478Z,96989.09
2023-07-25T11:45:16.546Z,96992.53
2023-07-25T11:47:19.671Z,96993.69
2023-07-25T11:49:40.142Z,96998.19
2023-07-25T11:51:48.873Z,96986.75
2023-07-25T11:53:51.993Z,96985.16
2023-07-25T11:55:56.534Z,96991.72
2023-07-25T11:58:03.502Z,96984.19
2023-07-25T12:00:08.118Z,96978.06
2023-07-25T12:02:13.515Z,96984.44
2023-07-25T12:04:17.968Z,96991.00
2023-07-25T12:06:29.012Z,96998.19
2023-07-25T12:08:35.106Z,96994.91
2023-07-25T12:10:39.188Z,97005.34
2023-07-25T12:12:46.321Z,96999.19
2023-07-25T12:15:02.823Z,96996.53
2023-07-25T12:17:06.515Z,97001.03
2023-07-25T12:19:12.638Z,96996.72
2023-07-25T12:21:24.147Z,96996.94
2023-07-25T12:23:30.406Z,97017.19
2023-07-25T12:25:37.345Z,97031.28
2023-07-25T12:27:46.528Z,97039.41
2023-07-25T12:29:49.672Z,97031.78
2023-07-25T12:31:53.411Z,97027.66
2023-07-25T12:33:56.583Z,97026.41
2023-07-25T12:35:58.998Z,97044.56
2023-07-25T12:38:02.120Z,97037.03
2023-07-25T12:40:06.068Z,97048.44
2023-07-25T12:42:10.490Z,97041.44
2023-07-25T12:44:14.320Z,97053.00
2023-07-25T12:46:17.431Z,97053.81
2023-07-25T12:48:20.546Z,97066.88
2023-07-25T12:50:24.142Z,97078.28
2023-07-25T12:52:27.300Z,97080.09
2023-07-25T12:54:31.069Z,97084.34
2023-07-25T12:56:34.451Z,97096.72
2023-07-25T12:58:39.333Z,97096.72
2023-07-25T13:00:42.469Z,97093.66
2023-07-25T13:02:46.171Z,97096.88
2023-07-25T13:04:49.311Z,97093.81
2023-07-25T13:06:52.545Z,97094.19
2023-07-25T13:08:54.695Z,97086.81
2023-07-25T13:10:57.731Z,97077.19
2023-07-25T13:13:00.936Z,97080.03
2023-07-25T13:15:05.099Z,97080.44
2023-07-25T13:17:08.366Z,97078.53
2023-07-25T13:19:13.553Z,97076.84
2023-07-25T13:21:16.713Z,97076.44
2023-07-25T13:23:20.247Z,97068.09
2023-07-25T13:25:22.450Z,97072.44
2023-07-25T13:27:26.882Z,97086.19
2023-07-25T13:29:29.214Z,97086.06
2023-07-25T13:31:34.341Z,97098.78
2023-07-25T13:33:37.804Z,97116.41
2023-07-25T13:35:41.053Z,97122.56
2023-07-25T13:37:44.277Z,97121.38
2023-07-25T13:39:47.401Z,97117.28
2023-07-25T13:41:50.672Z,97122.56
2023-07-25T13:43:53.771Z,97119.31
2023-07-25T13:45:57.237Z,97132.31
2023-07-25T13:48:02.180Z,97135.53
2023-07-25T13:50:05.975Z,97134.94
2023-07-25T13:52:09.279Z,97131.28
2023-07-25T13:54:12.366Z,97121.28
2023-07-25T13:56:15.449Z,97129.66
2023-07-25T14:00:24.543Z,97146.66
2023-07-25T14:02:26.811Z,97147.81
2023-07-25T14:04:31.289Z,97148.22
2023-07-25T14:06:34.616Z,97148.88
2023-07-25T14:08:37.732Z,97149.31
2023-07-25T14:10:41.942Z,97149.34
2023-07-25T14:12:45.240Z,97141.59
2023-07-25T14:14:48.420Z,97142.91
2023-07-25T14:16:51.547Z,97139.44
2023-07-25T14:18:54.703Z,97137.94
2023-07-25T14:21:00.727Z,97139.19
2023-07-25T14:23:04.155Z,97134.44
2023-07-25T14:25:07.918Z,97146.06
2023-07-25T14:27:11.083Z,97136.06
2023-07-25T14:29:14.509Z,97136.91
2023-07-25T14:31:17.557Z,97141.97
2023-07-25T14:33:21.887Z,97149.72
2023-07-25T14:35:24.979Z,97145.50
2023-07-25T14:37:37.133Z,97147.59
2023-07-25T14:39:52.533Z,97153.88
2023-07-25T14:41:55.607Z,97156.91
2023-07-25T14:43:57.882Z,97160.19
2023-07-25T14:46:03.035Z,97157.38
2023-07-25T14:48:07.190Z,97152.91
2023-07-25T14:50:12.001Z,97149.22
2023-07-25T14:52:15.032Z,97152.50
2023-07-25T14:54:19.535Z,97148.00
2023-07-25T14:56:22.706Z,97143.31
2023-07-25T14:58:26.114Z,97146.56
2023-07-25T15:00:29.934Z,97142.81
2023-07-25T15:02:33.174Z,97141.75
2023-07-25T15:04:36.364Z,97141.56
2023-07-25T15:06:39.401Z,97138.06
2023-07-25T15:08:42.649Z,97138.66
2023-07-25T15:10:47.213Z,97140.84
2023-07-25T15:12:50.381Z,97134.72
2023-07-25T15:14:53.596Z,97143.38
2023-07-25T15:16:57.558Z,97154.59
2023-07-25T15:19:00.826Z,97153.06
2023-07-25T15:21:04.160Z,97147.78
2023-07-25T15:23:07.309Z,97149.22
2023-07-25T15:25:10.693Z,97141.06
2023-07-25T15:27:15.132Z,97150.66
2023-07-25T15:29:18.241Z,97150.03
2023-07-25T15:31:22.148Z,97149.41
2023-07-25T15:33:25.504Z,97137.53
2023-07-25T15:35:27.722Z,97143.63
2023-07-25T15:37:30.867Z,97142.81
2023-07-25T15:39:33.989Z,97138.69
2023-07-25T15:41:37.163Z,97141.13
2023-07-25T15:43:41.666Z,97146.22
2023-07-25T15:45:44.846Z,97141.13
2023-07-25T15:47:47.913Z,97144.34
2023-07-25T15:49:51.034Z,97137.13
2023-07-25T15:51:54.194Z,97137.22
2023-07-25T15:53:57.309Z,97146.94
2023-07-25T15:56:00.469Z,97148.53
2023-07-25T15:58:04.270Z,97149.91
2023-07-25T16:00:10.996Z,97146.41
2023-07-25T16:02:14.168Z,97150.41
2023-07-25T16:04:17.318Z,97153.53
2023-07-25T16:06:20.559Z,97161.63
2023-07-25T16:08:23.718Z,97166.84
2023-07-25T16:10:26.939Z,97163.50
2023-07-25T16:12:30.024Z,97170.28
2023-07-25T16:14:32.041Z,97175.84
2023-07-25T16:16:36.577Z,97166.72
2023-07-25T16:18:39.696Z,97167.84
2023-07-25T16:20:42.958Z,97164.09
2023-07-25T16:22:46.076Z,97164.66
2023-07-25T16:24:49.172Z,97166.50
2023-07-25T16:26:52.324Z,97169.94
2023-07-25T16:28:55.386Z,97169.94
2023-07-25T16:31:16.920Z,97167.97
2023-07-25T16:33:22.995Z,97174.88
2023-07-25T16:35:26.032Z,97165.31
2023-07-25T16:37:29.421Z,97166.31
2023-07-25T16:39:32.556Z,97170.13
2023-07-25T16:41:35.956Z,97168.69
2023-07-25T16:43:38.079Z,97172.53
2023-07-25T16:45:41.286Z,97174.09
2023-07-25T16:47:43.466Z,97184.34
2023-07-25T16:49:48.002Z,97176.34
2023-07-25T16:51:51.062Z,97187.91
2023-07-25T16:53:54.168Z,97194.31
2023-07-25T16:55:57.233Z,97216.75
2023-07-25T16:58:00.336Z,97222.84
2023-07-25T17:00:05.010Z,97222.84
2023-07-25T17:02:08.681Z,97227.06
2023-07-25T17:04:10.797Z,97231.78
2023-07-25T17:06:15.290Z,97232.53
2023-07-25T17:08:18.386Z,97229.63
2023-07-25T17:10:21.501Z,97233.00
2023-07-25T17:12:23.751Z,97244.91
2023-07-25T17:14:26.792Z,97247.72
2023-07-25T17:16:30.108Z,97252.38
2023-07-25T17:18:33.414Z,97258.00
2023-07-25T17:20:36.787Z,97258.34
2023-07-25T17:22:41.288Z,97271.56
2023-07-25T17:24:44.510Z,97280.47
2023-07-25T17:26:47.680Z,97281.63
2023-07-25T17:28:50.766Z,97281.78
2023-07-25T17:30:53.870Z,97288.63
2023-07-25T17:32:58.725Z,97285.00
2023-07-25T17:35:03.092Z,97292.81
2023-07-25T17:37:07.677Z,97292.50
2023-07-25T17:39:12.197Z,97292.34
2023-07-25T17:41:15.597Z,97293.53
2023-07-25T17:43:18.831Z,97299.16
2023-07-25T17:45:21.096Z,97295.84
2023-07-25T17:47:24.467Z,97302.94
2023-07-25T17:49:27.592Z,97295.31
2023-07-25T17:51:30.994Z,97308.53
2023-07-25T17:53:34.301Z,97311.34
2023-07-25T17:55:41.304Z,97321.25
2023-07-25T17:57:44.853Z,97315.13
2023-07-25T17:59:48.043Z,97309.19
2023-07-25T18:01:51.142Z,97314.31
2023-07-25T18:03:54.389Z,97318.59
2023-07-25T18:05:57.533Z,97316.13
2023-07-25T18:08:00.688Z,97324.06
2023-07-25T18:10:03.866Z,97321.41
2023-07-25T18:12:09.647Z,97322.72
2023-07-25T18:14:12.833Z,97328.84
2023-07-25T18:16:17.188Z,97326.38
2023-07-25T18:18:20.913Z,97331.00
2023-07-25T18:20:24.570Z,97331.19
2023-07-25T18:22:32.163Z,97336.16
2023-07-25T18:24:35.385Z,97350.00
2023-07-25T18:26:39.224Z,97353.78
2023-07-25T18:28:44.211Z,97360.06
2023-07-25T18:30:47.285Z,97370.94
2023-07-25T18:32:50.528Z,97363.69
2023-07-25T18:34:53.866Z,97373.75
2023-07-25T18:36:57.000Z,97372.44
2023-07-25T18:39:01.572Z,97384.78
2023-07-25T18:41:04.854Z,97389.06
2023-07-25T18:43:07.994Z,97379.34
2023-07-25T18:45:12.843Z,97384.59
2023-07-25T18:47:28.656Z,97390.38
2023-07-25T18:49:37.332Z,97400.09
2023-07-25T18:51:40.564Z,97410.47
2023-07-25T18:53:43.755Z,97420.69
2023-07-25T18:55:48.947Z,97422.34
2023-07-25T18:57:52.063Z,97430.06
2023-07-25T18:59:56.799Z,97435.19
2023-07-25T19:02:01.383Z,97432.56
2023-07-25T19:04:04.601Z,97444.09
2023-07-25T19:06:07.792Z,97443.41
2023-07-25T19:08:11.108Z,97450.69
2023-07-25T19:10:15.916Z,97445.56
2023-07-25T19:12:20.968Z,97450.84
2023-07-25T19:14:24.007Z,97457.94
2023-07-25T19:16:27.280Z,97457.25
2023-07-25T19:18:31.965Z,97463.34
2023-07-25T19:20:35.027Z,97472.91
2023-07-25T19:22:38.105Z,97477.34
2023-07-25T19:24:41.368Z,97481.66
2023-07-25T19:26:44.617Z,97484.28
2023-07-25T19:28:47.715Z,97488.56
2023-07-25T19:30:49.896Z,97492.03
2023-07-25T19:32:53.126Z,97496.31
2023-07-25T19:34:57.679Z,97499.78
2023-07-25T19:37:00.712Z,97513.78
2023-07-25T19:39:03.964Z,97512.97
2023-07-25T19:41:15.450Z,97519.72
2023-07-25T19:43:18.517Z,97512.97
2023-07-25T19:45:21.591Z,97515.44
2023-07-25T19:47:24.869Z,97516.41
2023-07-25T19:49:27.188Z,97520.03
2023-07-25T19:51:31.701Z,97532.09
2023-07-25T19:53:34.872Z,97535.53
2023-07-25T19:55:38.092Z,97530.72
2023-07-25T19:57:41.344Z,97531.75
2023-07-25T19:59:44.934Z,97535.19
2023-07-25T20:01:48.393Z,97552.50
2023-07-25T20:03:50.591Z,97547.09
2023-07-25T20:05:53.809Z,97551.19
2023-07-25T20:07:58.465Z,97554.66
2023-07-25T20:10:02.400Z,97557.97
2023-07-25T20:12:07.217Z,97559.47
2023-07-25T20:14:10.724Z,97558.31
2023-07-25T20:16:13.943Z,97569.69
2023-07-25T20:18:17.125Z,97565.91
2023-07-25T20:20:20.442Z,97566.75
2023-07-25T20:22:23.652Z,97572.84
2023-07-25T20:24:28.265Z,97579.78
2023-07-25T20:26:31.621Z,97579.94
2023-07-25T20:28:34.899Z,97590.31
2023-07-25T20:30:38.007Z,97585.03
2023-07-25T20:32:40.189Z,97583.19
2023-07-25T20:34:43.430Z,97587.63
2023-07-25T20:36:46.573Z,97586.50
2023-07-25T20:38:49.699Z,97586.50
2023-07-25T20:40:54.536Z,97592.75
2023-07-25T20:42:56.638Z,97586.81
2023-07-25T20:44:59.745Z,97595.69
2023-07-25T20:47:01.927Z,97598.50
2023-07-25T20:49:05.161Z,97597.00
2023-07-25T20:51:08.370Z,97602.44
2023-07-25T20:53:11.476Z,97597.97
2023-07-25T20:55:14.720Z,97603.25
2023-07-25T20:57:19.244Z,97608.03
2023-07-25T20:59:22.525Z,97609.81
2023-07-25T21:01:25.658Z,97611.47
2023-07-25T21:03:29.190Z,97615.09
2023-07-25T21:05:32.436Z,97613.31
2023-07-25T21:07:36.450Z,97619.38
2023-07-25T21:09:40.954Z,97627.97
2023-07-25T21:11:44.361Z,97620.06
2023-07-25T21:13:48.964Z,97625.31
2023-07-25T21:15:51.101Z,97626.31
2023-07-25T21:18:06.604Z,97634.25
2023-07-25T21:20:16.083Z,97635.22
2023-07-25T21:22:19.521Z,97636.50
2023-07-25T21:24:22.680Z,97633.03
2023-07-25T21:26:25.899Z,97637.78
2023-07-25T21:28:29.057Z,97633.63
2023-07-25T21:30:33.931Z,97639.72
2023-07-25T21:32:37.151Z,97636.13
2023-07-25T21:34:40.287Z,97643.19
2023-07-25T21:36:43.745Z,97647.97
2023-07-25T21:38:46.918Z,97644.47
2023-07-25T21:40:49.297Z,97644.47
2023-07-25T21:42:52.719Z,97653.41
2023-07-25T21:44:57.122Z,97651.06
2023-07-25T21:47:01.688Z,97654.69
2023-07-25T21:49:04.889Z,97658.28
2023-07-25T21:51:08.817Z,97652.84
2023-07-25T21:53:11.984Z,97659.78
2023-07-25T21:55:15.162Z,97659.47
2023-07-25T21:57:18.293Z,97663.94
2023-07-25T21:59:21.326Z,97669.06
2023-07-25T22:01:24.488Z,97677.94
2023-07-25T22:03:30.089Z,97668.38
2023-07-25T22:05:34.140Z,97663.94
2023-07-25T22:07:39.749Z,97673.63
2023-07-25T22:09:42.974Z,97670.03
2023-07-25T22:11:46.736Z,97674.47
2023-07-25T22:13:49.892Z,97677.28
2023-07-25T22:15:53.767Z,97676.44
2023-07-25T22:17:56.970Z,97675.75
2023-07-25T22:20:01.606Z,97676.56
2023-07-25T22:22:05.015Z,97677.59
2023-07-25T22:24:08.129Z,97682.84
2023-07-25T22:26:11.323Z,97682.84
2023-07-25T22:28:14.403Z,97681.84
2023-07-25T22:30:17.810Z,97680.22
2023-07-25T22:32:20.908Z,97687.13
2023-07-25T22:34:23.963Z,97688.13
2023-07-25T22:36:28.439Z,97690.59
2023-07-25T22:38:31.557Z,97683.81
2023-07-25T22:40:34.667Z,97682.16
2023-07-25T22:42:37.764Z,97685.78
2023-07-25T22:44:39.859Z,97686.75
2023-07-25T22:46:43.024Z,97695.63
2023-07-25T22:48:46.096Z,97694.97
2023-07-25T22:50:50.793Z,97694.31
2023-07-25T22:52:55.250Z,97705.81
2023-07-25T22:54:57.332Z,97713.06
2023-07-25T22:57:00.376Z,97708.09
2023-07-25T22:59:05.406Z,97702.28
2023-07-25T23:01:08.879Z,97705.22
2023-07-25T23:03:12.075Z,97709.16
2023-07-25T23:05:15.258Z,97700.88
2023-07-25T23:07:18.371Z,97699.38
2023-07-25T23:09:22.950Z,97702.31
2023-07-25T23:11:26.025Z,97710.38
2023-07-25T23:13:29.556Z,97716.47
2023-07-25T23:15:32.676Z,97716.47
2023-07-25T23:17:35.825Z,97717.31
2023-07-25T23:19:38.921Z,97716.16
2023-07-25T23:21:41.966Z,97712.56
2023-07-25T23:23:45.098Z,97720.63
2023-07-25T23:25:49.832Z,97723.25
2023-07-25T23:27:52.885Z,97729.47
2023-07-25T23:29:55.971Z,97734.59
2023-07-25T23:31:59.067Z,97736.25
2023-07-25T23:34:02.176Z,97737.75
2023-07-25T23:36:05.842Z,97733.19
2023-07-25T23:38:08.964Z,97735.97
2023-07-25T23:40:13.101Z,97736.63
2023-07-25T23:42:17.582Z,97740.22
2023-07-25T23:44:20.649Z,97748.13
2023-07-25T23:46:23.764Z,97742.88
2023-07-25T23:48:26.865Z,97739.25
2023-07-25T23:50:29.935Z,97751.47
2023-07-25T23:52:35.015Z,97748.84
2023-07-25T23:54:38.210Z,97751.47
2023-07-25T23:56:42.169Z,97752.44
2023-07-25T23:58:46.617Z,97757.84
